sensor_id;sensor_type;location;lat;lon;timestamp;P1;durP1;ratioP1;P2;durP2;ratioP2
69565;SDS011;56777;55.930;37.524;2024-01-15T00:00:17;27.52;;;7.55;;
69565;SDS011;56777;55.930;37.524;2024-01-15T00:02:43;25.48;;;7.13;;
69565;SDS011;56777;55.930;37.524;2024-01-15T00:05:08;25.88;;;7.55;;
69565;SDS011;56777;55.930;37.524;2024-01-15T00:07:34;25.92;;;7.40;;
69565;SDS011;56777;55.930;37.524;2024-01-15T00:10:00;19.30;;;6.35;;
69565;SDS011;56777;55.930;37.524;2024-01-15T00:12:26;18.63;;;6.28;;
69565;SDS011;56777;55.930;37.524;2024-01-15T00:14:52;16.95;;;6.30;;
69565;SDS011;56777;55.930;37.524;2024-01-15T00:17:18;18.70;;;6.07;;
69565;SDS011;56777;55.930;37.524;2024-01-15T00:19:43;16.77;;;5.55;;
69565;SDS011;56777;55.930;37.524;2024-01-15T00:22:09;19.50;;;6.07;;
69565;SDS011;56777;55.930;37.524;2024-01-15T00:24:34;18.08;;;4.97;;
69565;SDS011;56777;55.930;37.524;2024-01-15T00:27:00;15.23;;;5.20;;
69565;SDS011;56777;55.930;37.524;2024-01-15T00:29:25;14.35;;;4.88;;
69565;SDS011;56777;55.930;37.524;2024-01-15T00:31:51;13.98;;;4.82;;
69565;SDS011;56777;55.930;37.524;2024-01-15T00:34:16;14.30;;;5.38;;
69565;SDS011;56777;55.930;37.524;2024-01-15T00:36:42;14.45;;;5.03;;
69565;SDS011;56777;55.930;37.524;2024-01-15T00:39:08;13.45;;;5.05;;
69565;SDS011;56777;55.930;37.524;2024-01-15T00:41:35;11.93;;;4.45;;
69565;SDS011;56777;55.930;37.524;2024-01-15T00:44:01;12.52;;;4.82;;
69565;SDS011;56777;55.930;37.524;2024-01-15T00:46:28;10.60;;;4.15;;
69565;SDS011;56777;55.930;37.524;2024-01-15T00:48:53;12.23;;;4.60;;
69565;SDS011;56777;55.930;37.524;2024-01-15T00:51:19;9.07;;;4.35;;
69565;SDS011;56777;55.930;37.524;2024-01-15T00:53:45;11.43;;;4.45;;
69565;SDS011;56777;55.930;37.524;2024-01-15T00:56:10;13.27;;;4.25;;
69565;SDS011;56777;55.930;37.524;2024-01-15T00:58:36;10.45;;;3.90;;
69565;SDS011;56777;55.930;37.524;2024-01-15T01:01:01;9.80;;;3.70;;
69565;SDS011;56777;55.930;37.524;2024-01-15T01:03:27;9.18;;;3.55;;
69565;SDS011;56777;55.930;37.524;2024-01-15T01:05:52;8.43;;;3.25;;
69565;SDS011;56777;55.930;37.524;2024-01-15T01:08:18;7.97;;;2.78;;
69565;SDS011;56777;55.930;37.524;2024-01-15T01:10:43;7.38;;;2.92;;
69565;SDS011;56777;55.930;37.524;2024-01-15T01:13:09;5.85;;;2.28;;
69565;SDS011;56777;55.930;37.524;2024-01-15T01:15:34;4.88;;;2.03;;
69565;SDS011;56777;55.930;37.524;2024-01-15T01:18:00;5.00;;;1.80;;
69565;SDS011;56777;55.930;37.524;2024-01-15T01:20:25;3.42;;;1.63;;
69565;SDS011;56777;55.930;37.524;2024-01-15T01:22:51;2.13;;;1.20;;
69565;SDS011;56777;55.930;37.524;2024-01-15T01:25:16;1.67;;;1.10;;
69565;SDS011;56777;55.930;37.524;2024-01-15T01:27:42;2.42;;;1.02;;
69565;SDS011;56777;55.930;37.524;2024-01-15T01:30:08;2.53;;;1.33;;
69565;SDS011;56777;55.930;37.524;2024-01-15T01:32:33;1.83;;;1.05;;
69565;SDS011;56777;55.930;37.524;2024-01-15T01:34:59;2.50;;;1.00;;
69565;SDS011;56777;55.930;37.524;2024-01-15T01:37:25;1.90;;;1.00;;
69565;SDS011;56777;55.930;37.524;2024-01-15T01:39:50;1.63;;;0.90;;
69565;SDS011;56777;55.930;37.524;2024-01-15T01:42:16;1.63;;;0.88;;
69565;SDS011;56777;55.930;37.524;2024-01-15T01:44:41;3.70;;;1.05;;
69565;SDS011;56777;55.930;37.524;2024-01-15T01:47:07;2.40;;;1.17;;
69565;SDS011;56777;55.930;37.524;2024-01-15T01:49:33;2.85;;;1.17;;
69565;SDS011;56777;55.930;37.524;2024-01-15T01:52:01;2.95;;;1.00;;
69565;SDS011;56777;55.930;37.524;2024-01-15T01:54:28;1.95;;;0.90;;
69565;SDS011;56777;55.930;37.524;2024-01-15T01:56:56;2.13;;;1.08;;
69565;SDS011;56777;55.930;37.524;2024-01-15T01:59:23;1.58;;;0.70;;
69565;SDS011;56777;55.930;37.524;2024-01-15T02:01:50;1.92;;;0.90;;
69565;SDS011;56777;55.930;37.524;2024-01-15T02:04:17;3.53;;;1.00;;
69565;SDS011;56777;55.930;37.524;2024-01-15T02:06:43;2.72;;;1.27;;
69565;SDS011;56777;55.930;37.524;2024-01-15T02:09:09;1.88;;;1.00;;
69565;SDS011;56777;55.930;37.524;2024-01-15T02:11:40;3.78;;;1.27;;
69565;SDS011;56777;55.930;37.524;2024-01-15T02:14:06;4.03;;;1.20;;
69565;SDS011;56777;55.930;37.524;2024-01-15T02:16:32;3.35;;;1.20;;
69565;SDS011;56777;55.930;37.524;2024-01-15T02:18:57;2.00;;;1.10;;
69565;SDS011;56777;55.930;37.524;2024-01-15T02:21:23;3.13;;;1.00;;
69565;SDS011;56777;55.930;37.524;2024-01-15T02:23:51;3.92;;;0.90;;
69565;SDS011;56777;55.930;37.524;2024-01-15T02:26:16;2.22;;;0.70;;
69565;SDS011;56777;55.930;37.524;2024-01-15T02:28:43;0.80;;;0.57;;
69565;SDS011;56777;55.930;37.524;2024-01-15T02:31:09;1.58;;;0.77;;
69565;SDS011;56777;55.930;37.524;2024-01-15T02:33:35;1.98;;;0.82;;
69565;SDS011;56777;55.930;37.524;2024-01-15T02:36:00;2.70;;;0.90;;
69565;SDS011;56777;55.930;37.524;2024-01-15T02:38:26;1.95;;;0.77;;
69565;SDS011;56777;55.930;37.524;2024-01-15T02:40:51;1.15;;;0.77;;
69565;SDS011;56777;55.930;37.524;2024-01-15T02:43:17;1.25;;;0.68;;
69565;SDS011;56777;55.930;37.524;2024-01-15T02:45:44;2.38;;;0.68;;
69565;SDS011;56777;55.930;37.524;2024-01-15T02:48:10;2.70;;;0.73;;
69565;SDS011;56777;55.930;37.524;2024-01-15T02:50:35;1.55;;;0.70;;
69565;SDS011;56777;55.930;37.524;2024-01-15T02:53:01;2.80;;;1.20;;
69565;SDS011;56777;55.930;37.524;2024-01-15T02:55:26;1.50;;;0.80;;
69565;SDS011;56777;55.930;37.524;2024-01-15T02:57:54;1.17;;;0.68;;
69565;SDS011;56777;55.930;37.524;2024-01-15T03:00:20;1.95;;;0.80;;
69565;SDS011;56777;55.930;37.524;2024-01-15T03:02:45;2.67;;;1.27;;
69565;SDS011;56777;55.930;37.524;2024-01-15T03:05:11;2.33;;;0.90;;
69565;SDS011;56777;55.930;37.524;2024-01-15T03:07:37;2.05;;;1.08;;
69565;SDS011;56777;55.930;37.524;2024-01-15T03:10:03;4.10;;;0.98;;
69565;SDS011;56777;55.930;37.524;2024-01-15T03:12:29;2.08;;;1.05;;
69565;SDS011;56777;55.930;37.524;2024-01-15T03:14:55;2.72;;;1.05;;
69565;SDS011;56777;55.930;37.524;2024-01-15T03:17:20;3.17;;;1.10;;
69565;SDS011;56777;55.930;37.524;2024-01-15T03:19:46;3.08;;;1.25;;
69565;SDS011;56777;55.930;37.524;2024-01-15T03:22:11;4.15;;;1.20;;
69565;SDS011;56777;55.930;37.524;2024-01-15T03:24:37;4.40;;;1.40;;
69565;SDS011;56777;55.930;37.524;2024-01-15T03:27:03;3.70;;;1.33;;
69565;SDS011;56777;55.930;37.524;2024-01-15T03:29:29;5.00;;;1.48;;
69565;SDS011;56777;55.930;37.524;2024-01-15T03:31:54;5.82;;;1.50;;
69565;SDS011;56777;55.930;37.524;2024-01-15T03:34:20;3.10;;;1.50;;
69565;SDS011;56777;55.930;37.524;2024-01-15T03:36:45;4.82;;;1.75;;
69565;SDS011;56777;55.930;37.524;2024-01-15T03:39:11;6.65;;;1.83;;
69565;SDS011;56777;55.930;37.524;2024-01-15T03:41:36;4.93;;;2.00;;
69565;SDS011;56777;55.930;37.524;2024-01-15T03:44:02;4.68;;;1.88;;
69565;SDS011;56777;55.930;37.524;2024-01-15T03:46:27;6.32;;;2.10;;
69565;SDS011;56777;55.930;37.524;2024-01-15T03:48:53;8.32;;;2.10;;
69565;SDS011;56777;55.930;37.524;2024-01-15T03:51:19;3.70;;;1.40;;
69565;SDS011;56777;55.930;37.524;2024-01-15T03:53:45;5.78;;;1.73;;
69565;SDS011;56777;55.930;37.524;2024-01-15T03:56:10;7.05;;;2.38;;
69565;SDS011;56777;55.930;37.524;2024-01-15T03:58:36;4.80;;;1.60;;
69565;SDS011;56777;55.930;37.524;2024-01-15T04:01:02;4.85;;;1.77;;
69565;SDS011;56777;55.930;37.524;2024-01-15T04:03:28;4.65;;;1.80;;
69565;SDS011;56777;55.930;37.524;2024-01-15T04:05:53;4.35;;;1.70;;
69565;SDS011;56777;55.930;37.524;2024-01-15T04:08:19;5.18;;;1.73;;
69565;SDS011;56777;55.930;37.524;2024-01-15T04:10:45;4.38;;;1.60;;
69565;SDS011;56777;55.930;37.524;2024-01-15T04:13:11;3.47;;;1.90;;
69565;SDS011;56777;55.930;37.524;2024-01-15T04:15:36;5.55;;;2.13;;
69565;SDS011;56777;55.930;37.524;2024-01-15T04:18:03;5.22;;;1.92;;
69565;SDS011;56777;55.930;37.524;2024-01-15T04:20:28;6.88;;;2.40;;
69565;SDS011;56777;55.930;37.524;2024-01-15T04:22:54;6.45;;;2.35;;
69565;SDS011;56777;55.930;37.524;2024-01-15T04:25:20;6.35;;;2.85;;
69565;SDS011;56777;55.930;37.524;2024-01-15T04:27:45;7.03;;;2.97;;
69565;SDS011;56777;55.930;37.524;2024-01-15T04:30:11;7.75;;;2.75;;
69565;SDS011;56777;55.930;37.524;2024-01-15T04:32:37;7.72;;;3.20;;
69565;SDS011;56777;55.930;37.524;2024-01-15T04:35:02;7.90;;;3.53;;
69565;SDS011;56777;55.930;37.524;2024-01-15T04:37:28;7.80;;;3.30;;
69565;SDS011;56777;55.930;37.524;2024-01-15T04:39:54;7.70;;;3.10;;
69565;SDS011;56777;55.930;37.524;2024-01-15T04:42:23;8.05;;;3.42;;
69565;SDS011;56777;55.930;37.524;2024-01-15T04:44:48;6.97;;;3.22;;
69565;SDS011;56777;55.930;37.524;2024-01-15T04:47:14;9.05;;;3.13;;
69565;SDS011;56777;55.930;37.524;2024-01-15T04:49:40;8.77;;;3.80;;
69565;SDS011;56777;55.930;37.524;2024-01-15T04:52:05;7.38;;;3.15;;
69565;SDS011;56777;55.930;37.524;2024-01-15T04:54:31;9.57;;;3.92;;
69565;SDS011;56777;55.930;37.524;2024-01-15T04:56:56;7.95;;;3.53;;
69565;SDS011;56777;55.930;37.524;2024-01-15T04:59:22;8.32;;;3.08;;
69565;SDS011;56777;55.930;37.524;2024-01-15T05:01:48;8.35;;;3.67;;
69565;SDS011;56777;55.930;37.524;2024-01-15T05:04:14;12.52;;;4.53;;
69565;SDS011;56777;55.930;37.524;2024-01-15T05:06:40;10.60;;;4.28;;
69565;SDS011;56777;55.930;37.524;2024-01-15T05:09:05;9.23;;;3.97;;
69565;SDS011;56777;55.930;37.524;2024-01-15T05:11:31;10.73;;;3.90;;
69565;SDS011;56777;55.930;37.524;2024-01-15T05:13:56;14.80;;;4.47;;
69565;SDS011;56777;55.930;37.524;2024-01-15T05:16:22;10.25;;;3.72;;
69565;SDS011;56777;55.930;37.524;2024-01-15T05:18:47;9.88;;;4.30;;
69565;SDS011;56777;55.930;37.524;2024-01-15T05:21:13;10.25;;;3.95;;
69565;SDS011;56777;55.930;37.524;2024-01-15T05:23:38;11.27;;;4.30;;
69565;SDS011;56777;55.930;37.524;2024-01-15T05:26:04;11.02;;;4.53;;
69565;SDS011;56777;55.930;37.524;2024-01-15T05:28:29;14.52;;;5.28;;
69565;SDS011;56777;55.930;37.524;2024-01-15T05:30:55;11.02;;;4.60;;
69565;SDS011;56777;55.930;37.524;2024-01-15T05:33:25;11.80;;;4.88;;
69565;SDS011;56777;55.930;37.524;2024-01-15T05:35:51;11.63;;;5.15;;
69565;SDS011;56777;55.930;37.524;2024-01-15T05:38:17;12.80;;;4.63;;
69565;SDS011;56777;55.930;37.524;2024-01-15T05:40:42;12.65;;;5.28;;
69565;SDS011;56777;55.930;37.524;2024-01-15T05:43:08;14.60;;;5.05;;
69565;SDS011;56777;55.930;37.524;2024-01-15T05:45:37;13.60;;;5.90;;
69565;SDS011;56777;55.930;37.524;2024-01-15T05:48:03;12.32;;;5.22;;
69565;SDS011;56777;55.930;37.524;2024-01-15T05:50:30;13.55;;;5.30;;
69565;SDS011;56777;55.930;37.524;2024-01-15T05:52:55;13.48;;;5.25;;
69565;SDS011;56777;55.930;37.524;2024-01-15T05:55:21;13.43;;;4.55;;
69565;SDS011;56777;55.930;37.524;2024-01-15T05:57:46;11.80;;;4.50;;
69565;SDS011;56777;55.930;37.524;2024-01-15T06:00:12;15.35;;;4.78;;
69565;SDS011;56777;55.930;37.524;2024-01-15T06:02:38;12.75;;;5.40;;
69565;SDS011;56777;55.930;37.524;2024-01-15T06:05:04;10.43;;;4.65;;
69565;SDS011;56777;55.930;37.524;2024-01-15T06:07:31;10.80;;;4.32;;
69565;SDS011;56777;55.930;37.524;2024-01-15T06:09:57;11.48;;;4.82;;
69565;SDS011;56777;55.930;37.524;2024-01-15T06:12:22;15.48;;;5.63;;
69565;SDS011;56777;55.930;37.524;2024-01-15T06:14:48;12.93;;;5.47;;
69565;SDS011;56777;55.930;37.524;2024-01-15T06:17:14;13.63;;;5.88;;
69565;SDS011;56777;55.930;37.524;2024-01-15T06:19:39;15.52;;;5.70;;
69565;SDS011;56777;55.930;37.524;2024-01-15T06:22:05;13.82;;;5.93;;
69565;SDS011;56777;55.930;37.524;2024-01-15T06:24:30;11.48;;;5.05;;
69565;SDS011;56777;55.930;37.524;2024-01-15T06:26:56;14.82;;;5.95;;
69565;SDS011;56777;55.930;37.524;2024-01-15T06:29:22;14.13;;;6.25;;
69565;SDS011;56777;55.930;37.524;2024-01-15T06:31:50;14.20;;;5.82;;
69565;SDS011;56777;55.930;37.524;2024-01-15T06:34:16;11.25;;;5.25;;
69565;SDS011;56777;55.930;37.524;2024-01-15T06:36:41;11.30;;;4.90;;
69565;SDS011;56777;55.930;37.524;2024-01-15T06:39:07;10.38;;;4.13;;
69565;SDS011;56777;55.930;37.524;2024-01-15T06:41:32;11.70;;;4.07;;
69565;SDS011;56777;55.930;37.524;2024-01-15T06:43:58;10.98;;;4.18;;
69565;SDS011;56777;55.930;37.524;2024-01-15T06:46:24;9.15;;;3.88;;
69565;SDS011;56777;55.930;37.524;2024-01-15T06:48:49;8.77;;;3.75;;
69565;SDS011;56777;55.930;37.524;2024-01-15T06:51:15;8.68;;;4.10;;
69565;SDS011;56777;55.930;37.524;2024-01-15T06:53:41;11.63;;;4.65;;
69565;SDS011;56777;55.930;37.524;2024-01-15T06:56:07;10.60;;;4.00;;
69565;SDS011;56777;55.930;37.524;2024-01-15T06:58:32;9.82;;;3.75;;
69565;SDS011;56777;55.930;37.524;2024-01-15T07:00:58;11.60;;;4.90;;
69565;SDS011;56777;55.930;37.524;2024-01-15T07:03:24;12.63;;;4.75;;
69565;SDS011;56777;55.930;37.524;2024-01-15T07:05:49;10.68;;;4.53;;
69565;SDS011;56777;55.930;37.524;2024-01-15T07:08:15;11.95;;;5.15;;
69565;SDS011;56777;55.930;37.524;2024-01-15T07:10:40;14.30;;;5.40;;
69565;SDS011;56777;55.930;37.524;2024-01-15T07:13:06;12.63;;;5.53;;
69565;SDS011;56777;55.930;37.524;2024-01-15T07:15:34;13.88;;;5.40;;
69565;SDS011;56777;55.930;37.524;2024-01-15T07:18:00;11.85;;;5.00;;
69565;SDS011;56777;55.930;37.524;2024-01-15T07:20:25;14.82;;;5.30;;
69565;SDS011;56777;55.930;37.524;2024-01-15T07:22:51;10.93;;;5.03;;
69565;SDS011;56777;55.930;37.524;2024-01-15T07:25:16;14.68;;;6.25;;
69565;SDS011;56777;55.930;37.524;2024-01-15T07:27:42;16.08;;;5.95;;
69565;SDS011;56777;55.930;37.524;2024-01-15T07:30:10;12.63;;;5.70;;
69565;SDS011;56777;55.930;37.524;2024-01-15T07:32:36;12.52;;;5.10;;
69565;SDS011;56777;55.930;37.524;2024-01-15T07:35:02;14.45;;;5.63;;
69565;SDS011;56777;55.930;37.524;2024-01-15T07:37:28;13.63;;;5.63;;
69565;SDS011;56777;55.930;37.524;2024-01-15T07:39:54;14.02;;;5.40;;
69565;SDS011;56777;55.930;37.524;2024-01-15T07:42:19;12.98;;;5.65;;
69565;SDS011;56777;55.930;37.524;2024-01-15T07:44:45;13.02;;;4.90;;
69565;SDS011;56777;55.930;37.524;2024-01-15T07:47:10;13.05;;;5.65;;
69565;SDS011;56777;55.930;37.524;2024-01-15T07:49:36;11.57;;;5.05;;
69565;SDS011;56777;55.930;37.524;2024-01-15T07:52:01;12.55;;;5.05;;
69565;SDS011;56777;55.930;37.524;2024-01-15T07:54:27;11.65;;;5.07;;
69565;SDS011;56777;55.930;37.524;2024-01-15T07:59:22;15.15;;;5.47;;
69565;SDS011;56777;55.930;37.524;2024-01-15T08:01:48;12.50;;;4.35;;
69565;SDS011;56777;55.930;37.524;2024-01-15T08:04:14;11.95;;;5.07;;
69565;SDS011;56777;55.930;37.524;2024-01-15T08:06:40;12.55;;;4.70;;
69565;SDS011;56777;55.930;37.524;2024-01-15T08:09:05;9.52;;;4.10;;
69565;SDS011;56777;55.930;37.524;2024-01-15T08:11:32;13.00;;;5.22;;
69565;SDS011;56777;55.930;37.524;2024-01-15T08:13:57;13.18;;;4.93;;
69565;SDS011;56777;55.930;37.524;2024-01-15T08:16:23;10.57;;;4.28;;
69565;SDS011;56777;55.930;37.524;2024-01-15T08:18:50;13.75;;;5.00;;
69565;SDS011;56777;55.930;37.524;2024-01-15T08:21:16;18.40;;;6.40;;
69565;SDS011;56777;55.930;37.524;2024-01-15T08:23:41;12.45;;;5.43;;
69565;SDS011;56777;55.930;37.524;2024-01-15T08:26:07;12.73;;;5.68;;
69565;SDS011;56777;55.930;37.524;2024-01-15T08:28:34;13.50;;;5.10;;
69565;SDS011;56777;55.930;37.524;2024-01-15T08:30:59;10.90;;;5.03;;
69565;SDS011;56777;55.930;37.524;2024-01-15T08:33:25;11.57;;;5.40;;
69565;SDS011;56777;55.930;37.524;2024-01-15T08:35:50;12.02;;;4.90;;
69565;SDS011;56777;55.930;37.524;2024-01-15T08:38:16;11.60;;;5.03;;
69565;SDS011;56777;55.930;37.524;2024-01-15T08:40:41;14.27;;;5.55;;
69565;SDS011;56777;55.930;37.524;2024-01-15T08:43:07;14.00;;;5.38;;
69565;SDS011;56777;55.930;37.524;2024-01-15T08:45:32;15.48;;;5.63;;
69565;SDS011;56777;55.930;37.524;2024-01-15T08:47:58;11.73;;;5.75;;
69565;SDS011;56777;55.930;37.524;2024-01-15T08:50:24;12.15;;;5.07;;
69565;SDS011;56777;55.930;37.524;2024-01-15T08:52:50;12.57;;;5.82;;
69565;SDS011;56777;55.930;37.524;2024-01-15T08:55:15;11.88;;;5.57;;
69565;SDS011;56777;55.930;37.524;2024-01-15T08:57:41;12.02;;;6.18;;
69565;SDS011;56777;55.930;37.524;2024-01-15T09:00:06;13.35;;;5.40;;
69565;SDS011;56777;55.930;37.524;2024-01-15T09:02:36;12.43;;;5.28;;
69565;SDS011;56777;55.930;37.524;2024-01-15T09:05:10;10.85;;;5.28;;
69565;SDS011;56777;55.930;37.524;2024-01-15T09:07:36;11.10;;;5.05;;
69565;SDS011;56777;55.930;37.524;2024-01-15T09:10:01;11.18;;;5.30;;
69565;SDS011;56777;55.930;37.524;2024-01-15T09:12:27;13.15;;;5.25;;
69565;SDS011;56777;55.930;37.524;2024-01-15T09:14:53;14.07;;;5.50;;
69565;SDS011;56777;55.930;37.524;2024-01-15T09:17:19;12.52;;;5.32;;
69565;SDS011;56777;55.930;37.524;2024-01-15T09:19:46;11.15;;;5.22;;
69565;SDS011;56777;55.930;37.524;2024-01-15T09:22:12;12.27;;;5.72;;
69565;SDS011;56777;55.930;37.524;2024-01-15T09:24:42;12.35;;;5.57;;
69565;SDS011;56777;55.930;37.524;2024-01-15T09:27:08;13.70;;;5.90;;
69565;SDS011;56777;55.930;37.524;2024-01-15T09:29:33;12.18;;;5.97;;
69565;SDS011;56777;55.930;37.524;2024-01-15T09:31:59;12.57;;;6.00;;
69565;SDS011;56777;55.930;37.524;2024-01-15T09:34:24;11.07;;;5.68;;
69565;SDS011;56777;55.930;37.524;2024-01-15T09:36:50;13.38;;;6.22;;
69565;SDS011;56777;55.930;37.524;2024-01-15T09:39:15;9.07;;;4.57;;
69565;SDS011;56777;55.930;37.524;2024-01-15T09:41:41;11.35;;;5.63;;
69565;SDS011;56777;55.930;37.524;2024-01-15T09:44:08;11.93;;;5.53;;
69565;SDS011;56777;55.930;37.524;2024-01-15T09:46:35;11.13;;;5.57;;
69565;SDS011;56777;55.930;37.524;2024-01-15T09:49:01;13.05;;;5.45;;
69565;SDS011;56777;55.930;37.524;2024-01-15T09:51:28;11.13;;;5.82;;
69565;SDS011;56777;55.930;37.524;2024-01-15T09:56:22;12.10;;;5.40;;
69565;SDS011;56777;55.930;37.524;2024-01-15T09:58:48;11.68;;;5.32;;
69565;SDS011;56777;55.930;37.524;2024-01-15T10:01:14;12.43;;;6.43;;
69565;SDS011;56777;55.930;37.524;2024-01-15T10:03:42;11.13;;;5.18;;
69565;SDS011;56777;55.930;37.524;2024-01-15T10:06:08;11.77;;;5.63;;
69565;SDS011;56777;55.930;37.524;2024-01-15T10:08:34;12.10;;;6.05;;
69565;SDS011;56777;55.930;37.524;2024-01-15T10:11:02;11.77;;;5.75;;
69565;SDS011;56777;55.930;37.524;2024-01-15T10:13:30;10.82;;;5.47;;
69565;SDS011;56777;55.930;37.524;2024-01-15T10:15:56;11.23;;;5.68;;
69565;SDS011;56777;55.930;37.524;2024-01-15T10:18:23;10.88;;;4.65;;
69565;SDS011;56777;55.930;37.524;2024-01-15T10:20:48;12.93;;;5.38;;
69565;SDS011;56777;55.930;37.524;2024-01-15T10:23:14;15.20;;;5.43;;
69565;SDS011;56777;55.930;37.524;2024-01-15T10:25:43;14.13;;;5.05;;
69565;SDS011;56777;55.930;37.524;2024-01-15T10:28:08;11.55;;;5.28;;
69565;SDS011;56777;55.930;37.524;2024-01-15T10:30:35;11.27;;;5.00;;
69565;SDS011;56777;55.930;37.524;2024-01-15T10:33:01;9.77;;;4.85;;
69565;SDS011;56777;55.930;37.524;2024-01-15T10:35:29;9.80;;;5.22;;
69565;SDS011;56777;55.930;37.524;2024-01-15T10:37:55;13.10;;;5.80;;
69565;SDS011;56777;55.930;37.524;2024-01-15T10:40:21;12.18;;;5.40;;
69565;SDS011;56777;55.930;37.524;2024-01-15T10:42:47;12.10;;;5.65;;
69565;SDS011;56777;55.930;37.524;2024-01-15T10:45:13;11.30;;;5.15;;
69565;SDS011;56777;55.930;37.524;2024-01-15T10:47:39;11.70;;;5.05;;
69565;SDS011;56777;55.930;37.524;2024-01-15T10:50:06;13.63;;;5.65;;
69565;SDS011;56777;55.930;37.524;2024-01-15T10:52:35;11.80;;;4.70;;
69565;SDS011;56777;55.930;37.524;2024-01-15T10:55:02;11.73;;;6.07;;
69565;SDS011;56777;55.930;37.524;2024-01-15T10:57:29;13.43;;;5.40;;
69565;SDS011;56777;55.930;37.524;2024-01-15T10:59:55;11.25;;;5.22;;
69565;SDS011;56777;55.930;37.524;2024-01-15T11:02:21;12.73;;;5.43;;
69565;SDS011;56777;55.930;37.524;2024-01-15T11:04:47;10.35;;;4.70;;
69565;SDS011;56777;55.930;37.524;2024-01-15T11:07:13;14.57;;;6.07;;
69565;SDS011;56777;55.930;37.524;2024-01-15T11:09:39;11.10;;;4.97;;
69565;SDS011;56777;55.930;37.524;2024-01-15T11:12:11;9.88;;;4.70;;
69565;SDS011;56777;55.930;37.524;2024-01-15T11:14:39;13.57;;;4.70;;
69565;SDS011;56777;55.930;37.524;2024-01-15T11:17:05;12.27;;;5.85;;
69565;SDS011;56777;55.930;37.524;2024-01-15T11:25:03;13.10;;;5.43;;
69565;SDS011;56777;55.930;37.524;2024-01-15T11:27:45;16.60;;;6.13;;
69565;SDS011;56777;55.930;37.524;2024-01-15T11:30:18;11.23;;;5.15;;
69565;SDS011;56777;55.930;37.524;2024-01-15T11:32:47;13.25;;;5.78;;
69565;SDS011;56777;55.930;37.524;2024-01-15T11:35:13;13.30;;;5.55;;
69565;SDS011;56777;55.930;37.524;2024-01-15T11:40:20;11.68;;;4.63;;
69565;SDS011;56777;55.930;37.524;2024-01-15T11:42:47;12.20;;;5.47;;
69565;SDS011;56777;55.930;37.524;2024-01-15T11:45:15;10.45;;;5.15;;
69565;SDS011;56777;55.930;37.524;2024-01-15T11:50:20;16.58;;;5.22;;
69565;SDS011;56777;55.930;37.524;2024-01-15T11:52:50;14.10;;;5.60;;
69565;SDS011;56777;55.930;37.524;2024-01-15T11:55:36;20.58;;;6.10;;
69565;SDS011;56777;55.930;37.524;2024-01-15T11:58:09;20.23;;;6.50;;
69565;SDS011;56777;55.930;37.524;2024-01-15T12:00:35;25.05;;;5.93;;
69565;SDS011;56777;55.930;37.524;2024-01-15T12:03:05;16.88;;;5.25;;
69565;SDS011;56777;55.930;37.524;2024-01-15T12:05:31;17.13;;;6.15;;
69565;SDS011;56777;55.930;37.524;2024-01-15T12:07:56;11.07;;;4.95;;
69565;SDS011;56777;55.930;37.524;2024-01-15T12:10:22;12.77;;;5.40;;
69565;SDS011;56777;55.930;37.524;2024-01-15T12:15:33;16.52;;;5.90;;
69565;SDS011;56777;55.930;37.524;2024-01-15T12:18:00;14.85;;;5.38;;
69565;SDS011;56777;55.930;37.524;2024-01-15T12:20:27;11.68;;;5.50;;
69565;SDS011;56777;55.930;37.524;2024-01-15T12:22:57;12.05;;;5.25;;
69565;SDS011;56777;55.930;37.524;2024-01-15T12:25:23;16.95;;;6.32;;
69565;SDS011;56777;55.930;37.524;2024-01-15T12:27:50;13.50;;;5.57;;
69565;SDS011;56777;55.930;37.524;2024-01-15T12:30:16;18.27;;;5.75;;
69565;SDS011;56777;55.930;37.524;2024-01-15T12:32:42;13.57;;;5.57;;
69565;SDS011;56777;55.930;37.524;2024-01-15T12:35:08;13.63;;;6.28;;
69565;SDS011;56777;55.930;37.524;2024-01-15T12:37:35;15.35;;;6.28;;
69565;SDS011;56777;55.930;37.524;2024-01-15T12:40:02;16.33;;;7.03;;
69565;SDS011;56777;55.930;37.524;2024-01-15T12:42:31;18.02;;;6.38;;
69565;SDS011;56777;55.930;37.524;2024-01-15T12:44:57;16.23;;;7.07;;
69565;SDS011;56777;55.930;37.524;2024-01-15T12:47:23;16.65;;;6.47;;
69565;SDS011;56777;55.930;37.524;2024-01-15T12:49:51;16.98;;;7.05;;
69565;SDS011;56777;55.930;37.524;2024-01-15T12:52:19;17.10;;;7.22;;
69565;SDS011;56777;55.930;37.524;2024-01-15T12:54:46;17.08;;;7.43;;
69565;SDS011;56777;55.930;37.524;2024-01-15T12:57:15;15.38;;;6.20;;
69565;SDS011;56777;55.930;37.524;2024-01-15T12:59:42;15.05;;;6.38;;
69565;SDS011;56777;55.930;37.524;2024-01-15T13:02:09;18.35;;;6.95;;
69565;SDS011;56777;55.930;37.524;2024-01-15T13:04:36;20.92;;;6.28;;
69565;SDS011;56777;55.930;37.524;2024-01-15T13:07:02;15.32;;;6.13;;
69565;SDS011;56777;55.930;37.524;2024-01-15T13:09:28;22.00;;;7.28;;
69565;SDS011;56777;55.930;37.524;2024-01-15T13:11:54;18.23;;;7.97;;
69565;SDS011;56777;55.930;37.524;2024-01-15T13:14:20;21.88;;;8.57;;
69565;SDS011;56777;55.930;37.524;2024-01-15T13:16:46;17.38;;;8.20;;
69565;SDS011;56777;55.930;37.524;2024-01-15T13:19:11;15.93;;;7.20;;
69565;SDS011;56777;55.930;37.524;2024-01-15T13:21:38;19.92;;;7.68;;
69565;SDS011;56777;55.930;37.524;2024-01-15T13:24:05;17.00;;;7.45;;
69565;SDS011;56777;55.930;37.524;2024-01-15T13:26:33;15.70;;;7.38;;
69565;SDS011;56777;55.930;37.524;2024-01-15T13:29:00;22.48;;;7.32;;
69565;SDS011;56777;55.930;37.524;2024-01-15T13:31:27;16.50;;;7.07;;
69565;SDS011;56777;55.930;37.524;2024-01-15T13:33:53;19.98;;;8.70;;
69565;SDS011;56777;55.930;37.524;2024-01-15T13:36:20;20.13;;;8.10;;
69565;SDS011;56777;55.930;37.524;2024-01-15T13:38:46;21.30;;;7.13;;
69565;SDS011;56777;55.930;37.524;2024-01-15T13:41:12;18.65;;;7.70;;
69565;SDS011;56777;55.930;37.524;2024-01-15T13:43:37;18.10;;;7.55;;
69565;SDS011;56777;55.930;37.524;2024-01-15T13:46:03;22.45;;;8.43;;
69565;SDS011;56777;55.930;37.524;2024-01-15T13:48:30;18.10;;;8.25;;
69565;SDS011;56777;55.930;37.524;2024-01-15T13:50:57;18.75;;;7.43;;
69565;SDS011;56777;55.930;37.524;2024-01-15T13:53:23;21.92;;;8.43;;
69565;SDS011;56777;55.930;37.524;2024-01-15T13:55:48;19.60;;;7.78;;
69565;SDS011;56777;55.930;37.524;2024-01-15T13:58:14;23.35;;;8.27;;
69565;SDS011;56777;55.930;37.524;2024-01-15T14:00:39;21.98;;;8.98;;
69565;SDS011;56777;55.930;37.524;2024-01-15T14:03:05;23.20;;;8.63;;
69565;SDS011;56777;55.930;37.524;2024-01-15T14:05:30;21.15;;;8.50;;
69565;SDS011;56777;55.930;37.524;2024-01-15T14:07:56;25.83;;;9.93;;
69565;SDS011;56777;55.930;37.524;2024-01-15T14:10:21;19.88;;;8.50;;
69565;SDS011;56777;55.930;37.524;2024-01-15T14:12:47;26.13;;;10.02;;
69565;SDS011;56777;55.930;37.524;2024-01-15T14:15:12;24.15;;;9.60;;
69565;SDS011;56777;55.930;37.524;2024-01-15T14:17:38;23.77;;;9.90;;
69565;SDS011;56777;55.930;37.524;2024-01-15T14:20:04;25.70;;;10.02;;
69565;SDS011;56777;55.930;37.524;2024-01-15T14:22:30;27.20;;;10.20;;
69565;SDS011;56777;55.930;37.524;2024-01-15T14:24:56;26.75;;;10.30;;
69565;SDS011;56777;55.930;37.524;2024-01-15T14:27:21;23.13;;;9.50;;
69565;SDS011;56777;55.930;37.524;2024-01-15T14:29:47;23.90;;;9.30;;
69565;SDS011;56777;55.930;37.524;2024-01-15T14:32:12;20.55;;;8.68;;
69565;SDS011;56777;55.930;37.524;2024-01-15T14:34:38;27.45;;;10.60;;
69565;SDS011;56777;55.930;37.524;2024-01-15T14:37:04;26.63;;;10.85;;